Time;durP1;ratioP1;P1;durP2;ratioP2;P2;SDS_P1;SDS_P2;PMS_P1;PMS_P2;Temp;Humidity;BMP_temperature;BMP_pressure;BME280_temperature;BME280_humidity;BME280_pressure;Samples;Min_cycle;Max_cycle;Signal;HPM_P1;HPM_P2
2023/06/16 00:02:25;;;;;;;;;;;21.70;88.70;;;;;;5114072;28;19938;-44
2023/06/16 00:04:50;;;;;;;;;;;21.60;88.70;;;;;;5117519;28;19908;-43
2023/06/16 00:07:19;;;;;;;;;;;21.60;88.70;;;;;;5117464;28;20247;-45
2023/06/16 00:09:46;;;;;;;;;;;21.60;88.70;;;;;;5117660;28;20027;-45
2023/06/16 00:12:11;;;;;;;;;;;21.60;88.70;;;;;;5117594;28;19908;-44
2023/06/16 00:14:37;;;;;;;;;;;21.60;88.80;;;;;;5117598;28;20358;-45
2023/06/16 00:17:03;;;;;;;;;;;21.60;88.70;;;;;;5117228;28;19911;-44
2023/06/16 00:19:29;;;;;;;;;;;21.70;88.70;;;;;;5117694;28;20014;-43
2023/06/16 00:21:59;;;;;;;;;;;21.70;88.70;;;;;;5117372;28;19951;-44
2023/06/16 00:24:25;;;;;;;;;;;21.70;88.70;;;;;;5117358;28;20248;-44
2023/06/16 00:26:50;;;;;;;;;;;21.60;88.70;;;;;;5117312;28;19960;-43
2023/06/16 00:29:16;;;;;;;;;;;21.60;88.70;;;;;;5116985;28;19952;-43
2023/06/16 00:31:41;;;;;;;;;;;21.60;88.70;;;;;;5117560;28;19908;-45
2023/06/16 00:34:07;;;;;;;;;;;21.60;88.70;;;;;;5116963;28;19911;-43
2023/06/16 00:36:32;;;;;;;;;;;21.60;88.70;;;;;;5117469;28;19912;-44
2023/06/16 00:38:57;;;;;;;;;;;21.60;88.70;;;;;;5117147;28;19922;-45
2023/06/16 00:41:24;;;;;;;;;;;21.60;88.70;;;;;;5117093;28;19908;-45
2023/06/16 00:43:50;;;;;;;;;;;21.60;88.70;;;;;;5116931;28;19912;-43
2023/06/16 00:46:24;;;;;;;;;;;21.60;88.70;;;;;;5116973;28;19915;-45
2023/06/16 00:48:49;;;;;;;;;;;21.70;88.70;;;;;;5117285;28;19919;-46
2023/06/16 00:51:16;;;;;;;;;;;21.60;88.70;;;;;;5116489;28;19953;-43
2023/06/16 00:53:41;;;;;;;;;;;21.60;88.70;;;;;;5116685;28;19908;-45
2023/06/16 00:56:07;;;;;;;;;;;21.60;88.70;;;;;;5098506;28;19915;-45
2023/06/16 00:58:33;;;;;;;;;;;21.60;88.70;;;;;;5116429;28;20414;-48
2023/06/16 01:00:59;;;;;;;;;;;21.60;88.60;;;;;;5116382;28;19908;-45
2023/06/16 01:03:26;;;;;;;;;;;21.60;88.70;;;;;;5116341;28;20029;-44
2023/06/16 01:05:54;;;;;;;;;;;21.60;88.60;;;;;;5116352;28;20400;-47
2023/06/16 01:08:34;;;;;;;;;;;21.60;88.60;;;;;;5116579;28;19998;-43
2023/06/16 01:11:06;;;;;;;;;;;21.70;88.70;;;;;;5116232;28;19930;-47
2023/06/16 01:13:46;;;;;;;;;;;21.60;88.60;;;;;;5116191;28;19922;-43
2023/06/16 01:16:12;;;;;;;;;;;21.60;88.60;;;;;;5115679;28;19961;-44
2023/06/16 01:18:39;;;;;;;;;;;21.60;88.60;;;;;;5116378;28;19916;-45
2023/06/16 01:21:23;;;;;;;;;;;21.60;88.60;;;;;;5116361;28;20354;-45
2023/06/16 01:24:07;;;;;;;;;;;21.60;88.60;;;;;;5116234;28;20032;-45
2023/06/16 01:26:35;;;;;;;;;;;21.60;88.60;;;;;;5116166;28;19915;-45
2023/06/16 01:29:02;;;;;;;;;;;21.60;88.60;;;;;;5116114;28;19961;-44
2023/06/16 01:31:28;;;;;;;;;;;21.60;88.60;;;;;;5116106;28;19912;-44
2023/06/16 01:33:54;;;;;;;;;;;21.60;88.60;;;;;;5116047;28;19908;-43
2023/06/16 01:36:20;;;;;;;;;;;21.60;88.60;;;;;;5115810;28;19915;-45
2023/06/16 01:38:46;;;;;;;;;;;21.60;88.60;;;;;;5115975;28;19911;-46
2023/06/16 01:41:12;;;;;;;;;;;21.60;88.60;;;;;;5116243;28;20002;-45
2023/06/16 01:43:38;;;;;;;;;;;21.60;88.60;;;;;;5116103;28;19916;-43
2023/06/16 01:46:04;;;;;;;;;;;21.60;88.60;;;;;;5115845;28;19908;-43
2023/06/16 01:48:30;;;;;;;;;;;21.60;88.60;;;;;;5115355;28;19973;-43
2023/06/16 01:50:55;;;;;;;;;;;21.60;88.60;;;;;;5116087;28;19915;-46
2023/06/16 01:53:20;;;;;;;;;;;21.60;88.60;;;;;;5115358;28;19915;-43
2023/06/16 01:55:47;;;;;;;;;;;21.60;88.60;;;;;;5115648;28;20354;-44
2023/06/16 01:58:12;;;;;;;;;;;21.60;88.50;;;;;;5115235;28;20247;-47
2023/06/16 02:00:42;;;;;;;;;;;21.60;88.50;;;;;;5115279;28;19918;-44
2023/06/16 02:03:13;;;;;;;;;;;21.60;88.60;;;;;;5115754;28;20011;-43
2023/06/16 02:05:40;;;;;;;;;;;21.60;88.50;;;;;;5115452;28;20366;-45
2023/06/16 02:08:07;;;;;;;;;;;21.60;88.50;;;;;;5115132;28;20041;-45
2023/06/16 02:10:32;;;;;;;;;;;21.60;88.50;;;;;;5115354;28;19915;-44
2023/06/16 02:12:58;;;;;;;;;;;21.60;88.50;;;;;;5114996;28;19911;-46
2023/06/16 02:15:24;;;;;;;;;;;21.60;88.50;;;;;;5115299;28;20355;-45
2023/06/16 02:17:51;;;;;;;;;;;21.60;88.50;;;;;;5115175;28;19912;-43
2023/06/16 02:20:17;;;;;;;;;;;21.60;88.50;;;;;;5115178;28;19946;-47
2023/06/16 02:22:42;;;;;;;;;;;21.60;88.50;;;;;;5114888;28;19945;-43
2023/06/16 02:25:08;;;;;;;;;;;21.60;88.50;;;;;;5115140;28;19915;-45
2023/06/16 02:27:33;;;;;;;;;;;21.60;88.50;;;;;;5114225;28;19954;-44
2023/06/16 02:29:59;;;;;;;;;;;21.60;88.50;;;;;;5115064;28;19908;-43
2023/06/16 02:32:25;;;;;;;;;;;21.60;88.50;;;;;;5114962;28;19913;-43
2023/06/16 02:34:52;;;;;;;;;;;21.60;88.50;;;;;;5114934;28;19942;-45
2023/06/16 02:37:19;;;;;;;;;;;21.60;88.50;;;;;;5114610;28;19923;-44
2023/06/16 02:39:45;;;;;;;;;;;21.60;88.50;;;;;;5114616;28;19957;-43
2023/06/16 02:42:10;;;;;;;;;;;21.60;88.50;;;;;;5114888;28;20300;-44
2023/06/16 02:44:36;;;;;;;;;;;21.60;88.50;;;;;;5114575;28;19915;-45
2023/06/16 02:47:01;;;;;;;;;;;21.60;88.50;;;;;;5114513;28;19919;-44
2023/06/16 02:49:27;;;;;;;;;;;21.60;88.50;;;;;;5114794;28;19912;-43
2023/06/16 02:51:52;;;;;;;;;;;21.60;88.50;;;;;;5114403;28;19991;-45
2023/06/16 02:54:18;;;;;;;;;;;21.60;88.50;;;;;;5114707;28;20022;-45
2023/06/16 02:56:43;;;;;;;;;;;21.60;88.50;;;;;;5114609;28;19912;-43
2023/06/16 02:59:10;;;;;;;;;;;21.60;88.50;;;;;;5114680;28;20388;-47
2023/06/16 03:01:36;;;;;;;;;;;21.50;88.40;;;;;;5114596;28;19908;-44
2023/06/16 03:04:03;;;;;;;;;;;21.60;88.50;;;;;;5114327;28;20270;-44
2023/06/16 03:06:29;;;;;;;;;;;21.50;88.40;;;;;;5114207;28;19972;-43
2023/06/16 03:08:56;;;;;;;;;;;21.60;88.50;;;;;;5114157;28;20010;-43
2023/06/16 03:11:21;;;;;;;;;;;21.60;88.50;;;;;;5114129;28;20350;-47
2023/06/16 03:13:47;;;;;;;;;;;21.60;88.50;;;;;;5114444;28;20015;-43
2023/06/16 03:16:12;;;;;;;;;;;21.60;88.50;;;;;;5114376;28;19915;-45
2023/06/16 03:18:38;;;;;;;;;;;21.60;88.50;;;;;;5114511;28;19919;-45
2023/06/16 03:21:03;;;;;;;;;;;21.50;88.40;;;;;;5114143;28;19977;-44
2023/06/16 03:23:29;;;;;;;;;;;21.50;88.40;;;;;;5114372;28;20377;-45
2023/06/16 03:25:55;;;;;;;;;;;21.50;88.40;;;;;;5114293;28;19914;-45
2023/06/16 03:28:20;;;;;;;;;;;21.50;88.40;;;;;;5114254;28;20416;-46
2023/06/16 03:30:46;;;;;;;;;;;21.50;88.40;;;;;;5114608;28;19908;-46
2023/06/16 03:33:11;;;;;;;;;;;21.60;88.50;;;;;;5114189;28;19961;-46
2023/06/16 03:35:37;;;;;;;;;;;21.60;88.50;;;;;;5113903;28;19912;-43
2023/06/16 03:38:02;;;;;;;;;;;21.60;88.40;;;;;;5115144;28;19961;-43
2023/06/16 03:40:28;;;;;;;;;;;21.60;88.40;;;;;;5100034;28;19976;-43
2023/06/16 03:42:53;;;;;;;;;;;21.60;88.40;;;;;;5118269;28;19908;-43
2023/06/16 03:45:19;;;;;;;;;;;21.60;88.40;;;;;;5118203;28;19915;-43
2023/06/16 03:47:44;;;;;;;;;;;21.60;88.90;;;;;;5118146;28;19919;-42
2023/06/16 03:50:10;;;;;;;;;;;21.60;88.40;;;;;;5118581;28;19912;-46
2023/06/16 03:52:35;;;;;;;;;;;21.60;88.40;;;;;;5117784;28;19908;-48
2023/06/16 03:55:01;;;;;;;;;;;21.60;88.30;;;;;;5099679;28;20381;-43
2023/06/16 03:57:26;;;;;;;;;;;21.60;88.40;;;;;;5118088;28;20064;-43
2023/06/16 03:59:52;;;;;;;;;;;21.60;88.30;;;;;;5118016;28;19912;-43
2023/06/16 04:02:17;;;;;;;;;;;21.60;88.30;;;;;;5117874;28;19911;-43
2023/06/16 04:04:45;;;;;;;;;;;21.60;88.30;;;;;;5099605;28;19990;-46
2023/06/16 04:07:11;;;;;;;;;;;21.60;88.30;;;;;;5117780;28;19998;-45
2023/06/16 04:09:37;;;;;;;;;;;21.60;88.30;;;;;;5117753;28;19915;-46
2023/06/16 04:12:03;;;;;;;;;;;21.60;88.30;;;;;;5117609;28;19998;-42
2023/06/16 04:14:28;;;;;;;;;;;21.60;88.30;;;;;;5117626;28;19939;-42
2023/06/16 04:16:54;;;;;;;;;;;21.60;88.30;;;;;;5117240;28;20354;-43
2023/06/16 04:19:19;;;;;;;;;;;21.70;88.30;;;;;;5117837;28;19911;-45
2023/06/16 04:21:45;;;;;;;;;;;21.70;88.30;;;;;;5117174;28;19961;-43
2023/06/16 04:24:11;;;;;;;;;;;21.60;88.30;;;;;;5117330;28;20393;-45
2023/06/16 04:26:37;;;;;;;;;;;21.70;88.30;;;;;;5117200;28;19933;-44
2023/06/16 04:29:05;;;;;;;;;;;21.70;88.40;;;;;;5116999;28;20374;-43
2023/06/16 04:31:32;;;;;;;;;;;21.70;88.40;;;;;;5117318;28;20319;-44
2023/06/16 04:33:58;;;;;;;;;;;21.70;88.40;;;;;;5117163;28;19912;-42
2023/06/16 04:36:25;;;;;;;;;;;21.70;88.40;;;;;;5116918;28;19914;-42
2023/06/16 04:38:51;;;;;;;;;;;21.70;88.40;;;;;;5117069;28;20389;-43
2023/06/16 04:41:16;;;;;;;;;;;21.70;88.40;;;;;;5117114;28;19933;-46
2023/06/16 04:43:42;;;;;;;;;;;21.70;88.40;;;;;;5117010;28;19908;-44
2023/06/16 04:46:07;;;;;;;;;;;21.70;88.40;;;;;;5116856;28;20005;-44
2023/06/16 04:48:33;;;;;;;;;;;21.70;88.40;;;;;;5117063;28;19965;-46
2023/06/16 04:50:58;;;;;;;;;;;21.70;88.40;;;;;;5115849;28;19914;-42
2023/06/16 04:53:24;;;;;;;;;;;21.70;88.40;;;;;;5116564;28;19953;-45
2023/06/16 04:55:49;;;;;;;;;;;21.70;88.50;;;;;;5116731;28;20412;-45
2023/06/16 04:58:15;;;;;;;;;;;21.70;88.40;;;;;;5116583;28;19919;-46
2023/06/16 05:00:40;;;;;;;;;;;21.70;88.40;;;;;;5098595;28;20346;-46
2023/06/16 05:03:06;;;;;;;;;;;21.70;88.40;;;;;;5116376;28;20334;-47
2023/06/16 05:05:32;;;;;;;;;;;21.70;88.40;;;;;;5116400;28;19915;-45
2023/06/16 05:07:58;;;;;;;;;;;21.70;88.40;;;;;;5116538;28;20011;-43
2023/06/16 05:10:23;;;;;;;;;;;21.70;88.40;;;;;;5116123;28;20363;-44
2023/06/16 05:12:49;;;;;;;;;;;21.70;88.40;;;;;;5116069;28;20064;-47
2023/06/16 05:15:14;;;;;;;;;;;21.70;88.40;;;;;;5116395;28;19908;-44
2023/06/16 05:17:40;;;;;;;;;;;21.80;88.40;;;;;;5116142;28;19923;-44
2023/06/16 05:20:06;;;;;;;;;;;21.70;88.40;;;;;;5116131;28;20278;-47
2023/06/16 05:22:31;;;;;;;;;;;21.80;88.40;;;;;;5116404;28;19996;-44
2023/06/16 05:24:57;;;;;;;;;;;21.70;88.30;;;;;;5116078;28;19912;-43
2023/06/16 05:27:23;;;;;;;;;;;21.70;88.30;;;;;;5115851;28;19908;-44
2023/06/16 05:29:52;;;;;;;;;;;21.80;88.40;;;;;;5115732;28;19988;-45
2023/06/16 05:32:19;;;;;;;;;;;21.80;88.40;;;;;;5115933;28;20315;-45
2023/06/16 05:34:46;;;;;;;;;;;21.80;88.40;;;;;;5115512;28;19911;-47
2023/06/16 05:37:15;;;;;;;;;;;21.70;88.40;;;;;;5097599;28;19916;-44
2023/06/16 05:39:44;;;;;;;;;;;21.70;88.40;;;;;;5115603;28;19995;-42
2023/06/16 05:42:14;;;;;;;;;;;21.80;88.40;;;;;;5115738;28;19907;-43
2023/06/16 05:44:40;;;;;;;;;;;21.70;88.40;;;;;;5115689;28;20006;-44
2023/06/16 05:47:06;;;;;;;;;;;21.70;88.40;;;;;;5115153;28;20288;-43
2023/06/16 05:49:31;;;;;;;;;;;21.70;88.40;;;;;;5115458;28;19908;-46
2023/06/16 05:51:57;;;;;;;;;;;21.70;88.40;;;;;;5115535;28;19935;-48
2023/06/16 05:54:23;;;;;;;;;;;21.70;88.40;;;;;;5115475;28;20007;-46
2023/06/16 05:56:48;;;;;;;;;;;21.70;88.40;;;;;;5115092;28;19955;-43
2023/06/16 05:59:14;;;;;;;;;;;21.70;88.40;;;;;;5115404;28;19911;-44
2023/06/16 06:01:39;;;;;;;;;;;21.70;88.40;;;;;;5115151;28;20335;-45
2023/06/16 06:04:05;;;;;;;;;;;21.70;88.40;;;;;;5115390;28;19908;-43
2023/06/16 06:06:30;;;;;;;;;;;21.70;88.40;;;;;;5115527;28;19963;-45
2023/06/16 06:08:56;;;;;;;;;;;21.70;88.40;;;;;;5115245;28;19986;-45
2023/06/16 06:11:21;;;;;;;;;;;21.70;88.40;;;;;;5115200;28;19969;-45
2023/06/16 06:13:47;;;;;;;;;;;21.70;88.30;;;;;;5115535;28;19911;-43
2023/06/16 06:16:13;;;;;;;;;;;21.70;88.40;;;;;;5115044;28;20286;-43
2023/06/16 06:18:38;;;;;;;;;;;21.70;88.40;;;;;;5114942;28;19912;-47
2023/06/16 06:21:04;;;;;;;;;;;21.70;88.30;;;;;;5114708;28;19998;-45
2023/06/16 06:23:29;;;;;;;;;;;21.70;88.40;;;;;;5114456;28;19908;-43
2023/06/16 06:25:55;;;;;;;;;;;21.70;88.30;;;;;;5114630;28;20385;-43
2023/06/16 06:28:23;;;;;;;;;;;21.70;88.30;;;;;;5114634;28;19921;-43
2023/06/16 06:30:48;;;;;;;;;;;21.80;88.40;;;;;;5114801;28;19911;-44
2023/06/16 06:33:14;;;;;;;;;;;21.70;88.30;;;;;;5114433;28;19915;-43
2023/06/16 06:35:39;;;;;;;;;;;21.70;88.30;;;;;;5114821;28;19911;-46
2023/06/16 06:38:05;;;;;;;;;;;21.80;88.40;;;;;;5114555;28;19911;-44
2023/06/16 06:40:31;;;;;;;;;;;21.70;88.40;;;;;;5095985;28;20381;-43
2023/06/16 06:42:57;;;;;;;;;;;21.70;88.30;;;;;;5114329;28;20418;-43
2023/06/16 06:45:22;;;;;;;;;;;21.70;88.30;;;;;;5114687;28;19962;-46
2023/06/16 06:47:48;;;;;;;;;;;21.70;88.40;;;;;;5114258;28;20006;-43
2023/06/16 06:50:13;;;;;;;;;;;21.70;88.30;;;;;;5114549;28;19916;-43
2023/06/16 06:52:40;;;;;;;;;;;21.80;88.40;;;;;;5114161;28;19934;-43
2023/06/16 06:55:05;;;;;;;;;;;21.80;88.40;;;;;;5114436;28;19978;-43
2023/06/16 06:57:31;;;;;;;;;;;21.70;88.30;;;;;;5113962;28;20390;-42
2023/06/16 06:59:56;;;;;;;;;;;21.70;88.30;;;;;;5114358;28;20010;-46
2023/06/16 07:02:23;;;;;;;;;;;21.70;88.30;;;;;;5114323;28;20278;-45
2023/06/16 07:04:49;;;;;;;;;;;21.70;88.40;;;;;;5114789;28;19947;-43
2023/06/16 07:07:14;;;;;;;;;;;21.70;88.40;;;;;;5114378;28;19930;-44
2023/06/16 07:09:40;;;;;;;;;;;21.70;88.40;;;;;;5114309;28;19908;-45
2023/06/16 07:12:07;;;;;;;;;;;21.70;88.40;;;;;;5113986;28;20369;-45
2023/06/16 07:14:32;;;;;;;;;;;21.70;88.40;;;;;;5113971;28;19915;-44
2023/06/16 07:16:57;;;;;;;;;;;21.70;88.40;;;;;;5113975;28;19916;-45
2023/06/16 07:19:26;;;;;;;;;;;21.70;88.40;;;;;;5113792;28;20363;-47
2023/06/16 07:21:52;;;;;;;;;;;21.70;88.40;;;;;;5095974;28;20387;-44
2023/06/16 07:24:17;;;;;;;;;;;21.70;88.40;;;;;;5114185;28;20045;-43
2023/06/16 07:26:43;;;;;;;;;;;21.70;88.90;;;;;;5113966;28;19957;-48
2023/06/16 07:29:08;;;;;;;;;;;21.70;88.40;;;;;;5095811;28;19908;-43
2023/06/16 07:31:34;;;;;;;;;;;21.70;88.50;;;;;;5114182;28;20327;-45
2023/06/16 07:33:59;;;;;;;;;;;21.70;88.40;;;;;;5114254;28;19962;-42
2023/06/16 07:36:25;;;;;;;;;;;21.70;88.40;;;;;;5113653;28;19915;-43
2023/06/16 07:38:51;;;;;;;;;;;21.80;88.40;;;;;;5114113;28;19970;-45
2023/06/16 07:41:16;;;;;;;;;;;21.70;88.40;;;;;;5113728;28;20401;-45
2023/06/16 07:43:42;;;;;;;;;;;21.70;88.40;;;;;;5113633;28;19916;-44
2023/06/16 07:46:07;;;;;;;;;;;21.70;88.40;;;;;;5113710;28;19912;-44
2023/06/16 07:48:33;;;;;;;;;;;21.70;88.50;;;;;;5113493;28;19927;-43
2023/06/16 07:50:58;;;;;;;;;;;21.70;88.50;;;;;;5114271;28;19921;-47
2023/06/16 07:53:24;;;;;;;;;;;21.70;88.50;;;;;;5113834;28;19951;-45
2023/06/16 07:55:50;;;;;;;;;;;21.70;88.40;;;;;;5113826;28;19908;-45
2023/06/16 07:58:15;;;;;;;;;;;21.70;88.40;;;;;;5113733;28;19911;-43
2023/06/16 08:00:41;;;;;;;;;;;21.70;88.40;;;;;;5095382;28;19969;-46
2023/06/16 08:03:06;;;;;;;;;;;21.70;88.40;;;;;;5113933;28;19908;-46
2023/06/16 08:05:32;;;;;;;;;;;21.70;88.40;;;;;;5095429;28;19915;-43
2023/06/16 08:07:57;;;;;;;;;;;21.70;88.40;;;;;;5113961;28;19919;-44
2023/06/16 08:10:23;;;;;;;;;;;21.70;88.40;;;;;;5113850;28;20358;-43
2023/06/16 08:12:49;;;;;;;;;;;21.70;88.40;;;;;;5113672;28;19908;-45
2023/06/16 08:15:15;;;;;;;;;;;21.70;88.50;;;;;;5113887;28;20316;-44
2023/06/16 08:17:41;;;;;;;;;;;21.70;88.50;;;;;;5113498;28;20342;-44
2023/06/16 08:20:07;;;;;;;;;;;21.70;88.40;;;;;;5113580;28;19912;-44
2023/06/16 08:22:32;;;;;;;;;;;21.70;88.40;;;;;;5113390;28;19908;-46
2023/06/16 08:24:58;;;;;;;;;;;21.70;88.40;;;;;;5114629;28;20312;-46
2023/06/16 08:27:25;;;;;;;;;;;21.70;88.40;;;;;;5116969;28;19915;-45
2023/06/16 08:29:50;;;;;;;;;;;21.70;88.40;;;;;;5117193;28;19907;-46
2023/06/16 08:32:16;;;;;;;;;;;21.70;88.40;;;;;;5116959;28;19961;-46
2023/06/16 08:34:41;;;;;;;;;;;21.70;88.30;;;;;;5117381;28;19908;-43
2023/06/16 08:37:07;;;;;;;;;;;21.70;88.10;;;;;;5116973;28;19923;-46
2023/06/16 08:39:32;;;;;;;;;;;21.70;88.10;;;;;;5117340;28;19912;-43
2023/06/16 08:41:59;;;;;;;;;;;21.80;88.20;;;;;;5116746;28;19914;-47
2023/06/16 08:44:26;;;;;;;;;;;21.70;88.10;;;;;;5116738;28;19931;-48
2023/06/16 08:46:51;;;;;;;;;;;21.70;88.10;;;;;;5116568;28;20381;-43
2023/06/16 08:49:18;;;;;;;;;;;21.70;88.20;;;;;;5116882;28;19908;-44
2023/06/16 08:51:47;;;;;;;;;;;21.80;88.30;;;;;;5116708;28;19994;-45
2023/06/16 08:54:13;;;;;;;;;;;21.70;88.20;;;;;;5116434;28;20287;-43
2023/06/16 08:56:42;;;;;;;;;;;21.70;88.20;;;;;;5116316;28;19918;-43
2023/06/16 08:59:08;;;;;;;;;;;21.70;88.30;;;;;;5116543;28;20305;-46
2023/06/16 09:01:33;;;;;;;;;;;21.80;88.30;;;;;;5116491;28;20006;-43
2023/06/16 09:03:59;;;;;;;;;;;21.80;88.40;;;;;;5116475;28;20366;-42
2023/06/16 09:06:25;;;;;;;;;;;21.80;88.40;;;;;;5116603;28;19908;-46
2023/06/16 09:08:50;;;;;;;;;;;21.80;88.40;;;;;;5116319;28;19907;-45
2023/06/16 09:11:23;;;;;;;;;;;21.70;88.30;;;;;;5116434;28;19908;-44
2023/06/16 09:13:51;;;;;;;;;;;21.80;88.40;;;;;;5116440;28;20068;-43
2023/06/16 09:16:17;;;;;;;;;;;21.80;88.40;;;;;;5116090;28;19958;-42
2023/06/16 09:18:44;;;;;;;;;;;21.80;88.40;;;;;;5116240;28;19915;-45
2023/06/16 09:21:11;;;;;;;;;;;21.80;88.40;;;;;;5116034;28;20361;-46
2023/06/16 09:23:38;;;;;;;;;;;21.80;88.40;;;;;;5116127;28;19908;-43
2023/06/16 09:26:11;;;;;;;;;;;21.70;88.30;;;;;;5116177;28;19931;-45
2023/06/16 09:28:37;;;;;;;;;;;21.70;88.30;;;;;;5115688;28;20320;-43
2023/06/16 09:31:10;;;;;;;;;;;21.70;88.30;;;;;;5116024;28;19908;-44
2023/06/16 09:33:36;;;;;;;;;;;21.80;88.30;;;;;;5115825;28;19908;-43
2023/06/16 09:36:01;;;;;;;;;;;21.80;88.40;;;;;;5115098;28;20274;-48
2023/06/16 09:38:31;;;;;;;;;;;21.80;88.30;;;;;;5115662;28;19919;-42
2023/06/16 09:41:06;;;;;;;;;;;21.80;88.30;;;;;;5115428;28;19920;-42
2023/06/16 09:43:31;;;;;;;;;;;21.70;88.20;;;;;;5115863;28;20307;-44
2023/06/16 09:45:57;;;;;;;;;;;21.80;88.30;;;;;;5097434;28;19918;-43
2023/06/16 09:48:25;;;;;;;;;;;21.80;88.30;;;;;;5115707;28;20102;-43
2023/06/16 09:50:51;;;;;;;;;;;21.80;88.30;;;;;;5115497;28;19915;-45
2023/06/16 09:53:21;;;;;;;;;;;21.80;88.20;;;;;;5115327;28;19940;-44
2023/06/16 09:55:46;;;;;;;;;;;21.80;88.20;;;;;;5115269;28;19951;-47
2023/06/16 09:58:12;;;;;;;;;;;21.80;88.20;;;;;;5115367;28;20338;-47
2023/06/16 10:00:37;;;;;;;;;;;21.80;88.10;;;;;;5097170;28;20006;-43
2023/06/16 10:03:07;;;;;;;;;;;21.80;88.10;;;;;;5115442;28;19908;-44
2023/06/16 10:05:34;;;;;;;;;;;21.80;88.10;;;;;;5115431;28;19915;-44
2023/06/16 10:08:02;;;;;;;;;;;21.80;88.10;;;;;;5115447;28;19908;-44
2023/06/16 10:10:30;;;;;;;;;;;21.80;88.10;;;;;;5114857;28;19919;-44
2023/06/16 10:12:56;;;;;;;;;;;21.80;88.10;;;;;;5115324;28;19908;-44
2023/06/16 10:15:22;;;;;;;;;;;21.80;88.10;;;;;;5115004;28;19919;-49
2023/06/16 10:17:53;;;;;;;;;;;21.80;88.10;;;;;;5114739;28;20406;-43
2023/06/16 10:20:20;;;;;;;;;;;21.80;88.10;;;;;;5114945;28;19928;-43
2023/06/16 10:22:46;;;;;;;;;;;21.70;88.10;;;;;;5114846;28;19912;-42
2023/06/16 10:25:12;;;;;;;;;;;21.80;88.20;;;;;;5114870;28;20324;-45
2023/06/16 10:27:40;;;;;;;;;;;21.80;88.10;;;;;;5114701;28;19911;-45
2023/06/16 10:30:06;;;;;;;;;;;21.80;88.10;;;;;;5114983;28;20300;-45
2023/06/16 10:32:32;;;;;;;;;;;21.80;88.00;;;;;;5114492;28;19979;-43
2023/06/16 10:35:00;;;;;;;;;;;21.80;88.10;;;;;;5114737;28;19932;-44
2023/06/16 10:37:27;;;;;;;;;;;21.80;88.00;;;;;;5114524;28;20343;-44
2023/06/16 10:39:56;;;;;;;;;;;21.80;87.70;;;;;;5114693;28;19911;-43
2023/06/16 10:42:21;;;;;;;;;;;21.80;87.80;;;;;;5114483;28;19960;-47
2023/06/16 10:44:47;;;;;;;;;;;21.70;87.90;;;;;;5096482;28;19911;-43
2023/06/16 10:47:12;;;;;;;;;;;21.70;88.00;;;;;;5113419;28;19920;-45
2023/06/16 10:49:50;;;;;;;;;;;21.80;88.10;;;;;;5114045;28;20374;-44
2023/06/16 10:52:36;;;;;;;;;;;21.80;88.10;;;;;;5114371;28;19915;-45
2023/06/16 10:55:23;;;;;;;;;;;21.80;88.00;;;;;;5062332;28;19908;-43
2023/06/16 10:58:20;;;;;;;;;;;21.80;88.00;;;;;;5114137;28;19915;-44
2023/06/16 11:01:04;;;;;;;;;;;21.80;88.00;;;;;;5114442;28;20030;-48
2023/06/16 11:03:42;;;;;;;;;;;21.80;87.90;;;;;;5114411;28;20266;-44
2023/06/16 11:06:09;;;;;;;;;;;21.80;87.90;;;;;;5114330;28;19912;-46
2023/06/16 11:08:52;;;;;;;;;;;21.80;87.80;;;;;;5113791;28;19941;-44
2023/06/16 11:11:18;;;;;;;;;;;21.80;87.90;;;;;;5113896;28;20361;-45
2023/06/16 11:13:43;;;;;;;;;;;21.80;87.90;;;;;;5095913;28;19908;-45
2023/06/16 11:16:09;;;;;;;;;;;21.80;88.00;;;;;;5095889;28;20350;-43
2023/06/16 11:18:35;;;;;;;;;;;21.80;88.00;;;;;;5113726;28;19919;-44
2023/06/16 11:21:02;;;;;;;;;;;21.80;87.90;;;;;;5113746;28;19919;-43
2023/06/16 11:23:27;;;;;;;;;;;21.80;87.90;;;;;;5113842;28;19949;-42
2023/06/16 11:26:01;;;;;;;;;;;21.80;87.70;;;;;;5113839;28;19958;-43
2023/06/16 11:28:26;;;;;;;;;;;21.80;87.70;;;;;;5114084;28;19996;-43
2023/06/16 11:30:53;;;;;;;;;;;21.80;87.70;;;;;;5113640;28;19908;-46
2023/06/16 11:33:21;;;;;;;;;;;21.80;87.70;;;;;;5114008;28;20059;-45
2023/06/16 11:35:47;;;;;;;;;;;21.80;87.70;;;;;;5114337;28;19908;-45
2023/06/16 11:38:14;;;;;;;;;;;21.80;87.80;;;;;;5113302;28;19919;-44
2023/06/16 11:40:41;;;;;;;;;;;21.80;87.70;;;;;;5095703;28;20393;-45
2023/06/16 11:43:06;;;;;;;;;;;21.80;87.70;;;;;;5114040;28;19969;-45
2023/06/16 11:45:33;;;;;;;;;;;21.80;87.70;;;;;;5113924;28;20358;-45
2023/06/16 11:48:00;;;;;;;;;;;21.80;87.70;;;;;;5113977;28;19920;-47
2023/06/16 11:50:26;;;;;;;;;;;21.80;87.60;;;;;;5113936;28;19915;-43
2023/06/16 11:52:52;;;;;;;;;;;21.80;87.50;;;;;;5113550;28;19956;-45
2023/06/16 11:55:18;;;;;;;;;;;21.80;87.50;;;;;;5095425;28;20278;-45
2023/06/16 11:57:44;;;;;;;;;;;21.80;87.50;;;;;;5113366;28;20219;-43
2023/06/16 12:00:12;;;;;;;;;;;21.80;87.50;;;;;;5116354;28;19918;-43
2023/06/16 12:02:38;;;;;;;;;;;21.80;87.50;;;;;;5117594;28;19915;-44
2023/06/16 12:05:24;;;;;;;;;;;21.80;87.30;;;;;;5117010;28;19918;-43
2023/06/16 12:07:50;;;;;;;;;;;21.80;87.30;;;;;;5116181;28;19914;-43
2023/06/16 12:10:16;;;;;;;;;;;21.80;87.30;;;;;;5117388;28;19908;-44
2023/06/16 12:12:45;;;;;;;;;;;21.80;87.20;;;;;;5117421;28;20384;-46
2023/06/16 12:15:18;;;;;;;;;;;21.80;87.10;;;;;;5117242;28;19915;-47
2023/06/16 12:17:44;;;;;;;;;;;21.80;87.80;;;;;;5117037;28;19912;-44
2023/06/16 12:20:11;;;;;;;;;;;21.80;87.10;;;;;;5116721;28;19915;-48
2023/06/16 12:22:39;;;;;;;;;;;21.80;87.00;;;;;;5117441;28;19912;-44
2023/06/16 12:25:13;;;;;;;;;;;21.80;87.10;;;;;;5098837;28;19907;-48
2023/06/16 12:27:42;;;;;;;;;;;21.80;87.10;;;;;;5117075;28;19912;-43
2023/06/16 12:30:08;;;;;;;;;;;21.80;87.20;;;;;;5117236;28;20266;-46
2023/06/16 12:32:34;;;;;;;;;;;21.80;87.30;;;;;;5117185;28;19998;-47
2023/06/16 12:35:00;;;;;;;;;;;21.80;87.30;;;;;;5116829;28;19908;-44
2023/06/16 12:37:26;;;;;;;;;;;21.80;87.30;;;;;;5116773;28;19911;-45
2023/06/16 12:39:58;;;;;;;;;;;21.80;87.40;;;;;;5116877;28;19923;-45
2023/06/16 12:42:30;;;;;;;;;;;21.80;87.50;;;;;;5098637;28;19953;-43
2023/06/16 12:44:58;;;;;;;;;;;21.80;87.50;;;;;;5098385;28;19930;-44
2023/06/16 12:47:24;;;;;;;;;;;21.80;87.40;;;;;;5116858;28;19931;-45
2023/06/16 12:49:51;;;;;;;;;;;21.80;87.50;;;;;;5116801;28;20278;-43
2023/06/16 12:52:19;;;;;;;;;;;21.80;87.50;;;;;;5116735;28;19907;-44
2023/06/16 12:54:45;;;;;;;;;;;21.80;87.40;;;;;;5116922;28;19915;-43
2023/06/16 12:57:11;;;;;;;;;;;21.80;87.40;;;;;;5098170;28;20282;-42
2023/06/16 12:59:36;;;;;;;;;;;21.80;87.50;;;;;;5116588;28;19912;-46
2023/06/16 13:02:02;;;;;;;;;;;21.80;87.40;;;;;;5116331;28;20006;-44
2023/06/16 13:04:27;;;;;;;;;;;21.80;87.30;;;;;;5116642;28;19919;-47
2023/06/16 13:06:53;;;;;;;;;;;21.80;87.30;;;;;;5116601;28;19908;-47
2023/06/16 13:09:20;;;;;;;;;;;21.80;87.30;;;;;;5116029;28;20341;-44
2023/06/16 13:11:47;;;;;;;;;;;21.80;87.10;;;;;;5115070;28;19908;-45
2023/06/16 13:14:13;;;;;;;;;;;21.80;87.20;;;;;;5097597;28;19958;-46
2023/06/16 13:16:38;;;;;;;;;;;21.80;87.10;;;;;;5115884;28;19915;-45
2023/06/16 13:19:04;;;;;;;;;;;21.80;87.60;;;;;;5098026;28;19912;-44
2023/06/16 13:21:30;;;;;;;;;;;21.80;87.20;;;;;;5115866;28;20007;-44
2023/06/16 13:23:55;;;;;;;;;;;21.80;87.20;;;;;;5116018;28;19997;-44
2023/06/16 13:26:22;;;;;;;;;;;21.80;87.30;;;;;;5115893;28;19915;-43
2023/06/16 13:28:48;;;;;;;;;;;21.80;87.40;;;;;;5116343;28;19908;-45
2023/06/16 13:31:14;;;;;;;;;;;21.80;87.40;;;;;;5116285;28;19915;-47
2023/06/16 13:33:41;;;;;;;;;;;21.80;87.50;;;;;;5116046;28;19912;-45
2023/06/16 13:36:07;;;;;;;;;;;21.80;87.50;;;;;;5115902;28;19988;-44
2023/06/16 13:38:34;;;;;;;;;;;21.80;87.60;;;;;;5097481;28;19912;-45
2023/06/16 13:40:59;;;;;;;;;;;21.80;87.60;;;;;;5115792;28;20423;-43
2023/06/16 13:43:25;;;;;;;;;;;21.80;87.60;;;;;;5115762;28;19912;-43
2023/06/16 13:45:50;;;;;;;;;;;21.80;87.60;;;;;;5115671;28;20366;-44
2023/06/16 13:48:15;;;;;;;;;;;21.80;87.60;;;;;;5115619;28;19924;-44
2023/06/16 13:50:41;;;;;;;;;;;21.80;87.70;;;;;;5115454;28;19969;-45
2023/06/16 13:53:07;;;;;;;;;;;21.80;87.70;;;;;;5115229;28;19955;-44
2023/06/16 13:55:33;;;;;;;;;;;21.80;87.70;;;;;;5115357;28;19915;-46
2023/06/16 13:57:58;;;;;;;;;;;21.80;87.60;;;;;;5115475;28;19918;-45
2023/06/16 14:00:24;;;;;;;;;;;21.80;87.50;;;;;;5115406;28;19912;-44
2023/06/16 14:02:49;;;;;;;;;;;21.80;87.40;;;;;;5114734;28;20250;-44
2023/06/16 14:05:15;;;;;;;;;;;21.80;87.50;;;;;;5114915;28;20278;-44
2023/06/16 14:07:41;;;;;;;;;;;21.80;87.50;;;;;;5114877;28;19961;-45
2023/06/16 14:10:07;;;;;;;;;;;21.80;87.60;;;;;;5114828;28;19907;-47
2023/06/16 14:12:32;;;;;;;;;;;21.80;87.60;;;;;;5115172;28;20430;-43
2023/06/16 14:14:58;;;;;;;;;;;21.80;87.50;;;;;;5115157;28;19912;-47